MUC | München Airways

 METAR UND TAF INFORMATION

METAR FOR LESO
ADDS - METARS form results

(1534 UTC 19 May 2019)
Data provider http://aviationweather.gov/metar/data/
 
METAR text: LESO 191500Z VRB07KT 6000 -RA FEW007 BKN010 OVC033 13/11 Q1014
Conditions at: LESO (SAN SEBASTIAN/FU, ES) observed 1500 UTC 19 May 2019
Temperature: 13.0°C (55°F)
Dewpoint: 11.0°C (52°F) [RH = 88%]
Pressure (altimeter): 29.94 inches Hg (1014.0 mb)
Winds: variable direction winds at 8 MPH (7 knots; 3.6 m/s)
Visibility: 4 miles ( 6 km)
Ceiling: 1000 feet AGL
Clouds: few clouds at 700 feet AGL
broken clouds at 1000 feet AGL
overcast cloud deck at 3300 feet AGL
Weather: -RA  (light rain)

METAR text: LESO 191440Z 26010KT 190V330 8000 -RA BKN010 BKN032TCU 13/11 Q1014 RESHRA
Conditions at: LESO (SAN SEBASTIAN/FU, ES) observed 1440 UTC 19 May 2019
Temperature: 13.0°C (55°F)
Dewpoint: 11.0°C (52°F) [RH = 88%]
Pressure (altimeter): 29.94 inches Hg (1014.0 mb)
Winds: from the W (260 degrees) at 12 MPH (10 knots; 5.1 m/s)
Visibility: 5 miles ( 8 km)
Ceiling: 1000 feet AGL
Clouds: broken clouds at 1000 feet AGL
broken clouds at 3200 feet AGL
Weather: -RA  (light rain)

Forecast for: AMD
Text: TAF AMD LESO 191232Z 1912/2012 28009KT 8000 SCT015 BKN025 TX16/1915Z TN10/2005Z
Forecast period: 1200 UTC 19 May 2019 to 1200 UTC 20 May 2019
Forecast type: FROM: standard forecast or significant change
Winds: from the W (280 degrees) at 10 MPH (9 knots; 4.6 m/s)
Visibility: 5 miles (8 km)
Ceiling: 2500 feet AGL
Clouds: scattered clouds at 1500 feet AGL
broken clouds at 2500 feet AGL
Weather: no significant weather forecast for this period
Text: TEMPO 1912/2006 27015G25KT 3000 RA SHRA BKN010 BKN020TCU
Forecast period: 1200 UTC 19 May 2019 to 0600 UTC 20 May 2019
Forecast type: TEMPORARY: The following changes expected for less than half the time period
Winds: from the W (270 degrees) at 17 MPH (15 knots; 7.7 m/s)
gusting to 29 MPH (25 knots; 12.9 m/s)
Visibility: 1.86 miles (2.99 km)
Ceiling: 1000 feet AGL
Clouds: broken clouds at 1000 feet AGL
broken clouds at 2000 feet AGL
Weather: RA SHRA  (moderate rain, rain showers)

 FLUGHAFENKARTE

 RUNWAY INFORMATION
Runway 04 Runway length 5755 ft Runway width 148 ft
Runway elevation 10 ft Runway displaced threshold 0 ft Runway heading 39
Runway 22 Runway length 5755 ft Runway width 148 ft
Runway elevation 15 ft Runway displaced threshold 0 ft Runway heading 219

 AIRPORT FREQUENCIES
Type TWR Name SAN SEBAST Frequency 119.85 MHZ

 AIRPORT NEAR NAVIGATION AIDS
Type NDB-DME Name San Sebastian Frequency 328 KHZ
Type VOR-DME Name San Sebastian Frequency 117900 KHZ